createdAt,value
2022-11-03T00:00:47.386Z,8.03
2022-11-03T00:01:47.604Z,8.04
2022-11-03T00:02:47.529Z,8.02
2022-11-03T00:03:47.444Z,8.00
2022-11-03T00:04:47.327Z,7.96
2022-11-03T00:05:47.421Z,7.96
2022-11-03T00:06:47.308Z,7.92
2022-11-03T00:07:47.328Z,7.95
2022-11-03T00:08:47.335Z,7.95
2022-11-03T00:09:47.284Z,7.95
2022-11-03T00:10:47.286Z,7.95
2022-11-03T00:11:47.377Z,7.96
2022-11-03T00:12:47.393Z,7.95
2022-11-03T00:13:47.274Z,7.92
2022-11-03T00:14:47.257Z,7.94
2022-11-03T00:15:47.321Z,7.92
2022-11-03T00:16:47.313Z,7.95
2022-11-03T00:17:47.301Z,7.96
2022-11-03T00:18:47.255Z,7.99
2022-11-03T00:19:47.167Z,7.96
2022-11-03T00:20:47.203Z,7.95
2022-11-03T00:21:47.232Z,7.99
2022-11-03T00:22:47.144Z,7.99
2022-11-03T00:23:47.217Z,8.00
2022-11-03T00:24:47.124Z,7.99
2022-11-03T00:25:47.112Z,7.99
2022-11-03T00:26:47.192Z,7.99
2022-11-03T00:27:47.105Z,7.95
2022-11-03T00:28:47.095Z,7.96
2022-11-03T00:29:47.480Z,7.95
2022-11-03T00:30:47.196Z,7.92
2022-11-03T00:31:47.203Z,7.91
2022-11-03T00:32:47.148Z,7.92
2022-11-03T00:33:47.096Z,7.91
2022-11-03T00:34:47.020Z,7.88
2022-11-03T00:35:47.003Z,7.86
2022-11-03T00:36:46.997Z,7.86
2022-11-03T00:37:47.158Z,7.85
2022-11-03T00:38:47.037Z,7.86
2022-11-03T00:39:46.969Z,7.82
2022-11-03T00:40:47.097Z,7.81
2022-11-03T00:41:46.947Z,7.79
2022-11-03T00:42:46.929Z,7.77
2022-11-03T00:43:47.045Z,7.77
2022-11-03T00:44:46.997Z,7.76
2022-11-03T00:45:46.915Z,7.74
2022-11-03T00:46:46.950Z,7.74
2022-11-03T00:47:46.956Z,7.70
2022-11-03T00:48:46.968Z,7.70
2022-11-03T00:49:47.574Z,7.70
2022-11-03T00:50:46.847Z,7.70
2022-11-03T00:51:47.462Z,7.71
2022-11-03T00:52:46.946Z,7.71
2022-11-03T00:53:46.821Z,7.73
2022-11-03T00:54:50.025Z,7.70
2022-11-03T00:55:46.889Z,7.70
2022-11-03T00:56:46.785Z,7.69
2022-11-03T00:57:46.793Z,7.67
2022-11-03T00:58:46.885Z,7.66
2022-11-03T00:59:46.834Z,7.63
2022-11-03T01:00:46.993Z,7.66
2022-11-03T01:01:47.925Z,7.63
2022-11-03T01:02:46.732Z,7.63
2022-11-03T01:03:46.729Z,7.62
2022-11-03T01:04:47.093Z,7.58
2022-11-03T01:05:46.700Z,7.55
2022-11-03T01:06:46.713Z,7.57
2022-11-03T01:07:46.697Z,7.54
2022-11-03T01:08:46.765Z,7.54
2022-11-03T01:09:46.647Z,7.55
2022-11-03T01:10:46.639Z,7.55
2022-11-03T01:11:46.632Z,7.54
2022-11-03T01:12:46.669Z,7.54
2022-11-03T01:13:46.653Z,7.57
2022-11-03T01:14:46.594Z,7.55
2022-11-03T01:15:46.592Z,7.52
2022-11-03T01:16:46.577Z,7.54
2022-11-03T01:17:46.584Z,7.54
2022-11-03T01:18:46.568Z,7.55
2022-11-03T01:19:46.593Z,7.55
2022-11-03T01:20:46.537Z,7.52
2022-11-03T01:21:46.518Z,7.50
2022-11-03T01:22:46.560Z,7.48
2022-11-03T01:23:47.502Z,7.45
2022-11-03T01:24:46.552Z,7.45
2022-11-03T01:25:46.486Z,7.44
2022-11-03T01:26:46.588Z,7.44
2022-11-03T01:27:46.460Z,7.44
2022-11-03T01:28:46.476Z,7.44
2022-11-03T01:29:46.463Z,7.42
2022-11-03T01:30:46.444Z,7.44
2022-11-03T01:31:46.428Z,7.45
2022-11-03T01:32:46.554Z,7.42
2022-11-03T01:33:46.398Z,7.42
2022-11-03T01:34:46.415Z,7.42
2022-11-03T01:35:46.386Z,7.42
2022-11-03T01:36:46.504Z,7.41
2022-11-03T01:37:46.348Z,7.41
2022-11-03T01:38:46.355Z,7.41
2022-11-03T01:39:46.344Z,7.39
2022-11-03T01:40:46.313Z,7.39
2022-11-03T01:41:46.307Z,7.37
2022-11-03T01:42:46.299Z,7.37
2022-11-03T01:43:46.304Z,7.37
2022-11-03T01:44:46.277Z,7.41
2022-11-03T01:45:46.309Z,7.39
2022-11-03T01:46:46.259Z,7.41
2022-11-03T01:47:46.328Z,7.39
2022-11-03T01:48:46.261Z,7.41
2022-11-03T01:49:46.250Z,7.39
2022-11-03T01:50:46.226Z,7.39
2022-11-03T01:51:47.045Z,7.41
2022-11-03T01:52:46.840Z,7.37
2022-11-03T01:53:46.203Z,7.37
2022-11-03T01:54:46.165Z,7.39
2022-11-03T01:55:46.174Z,7.39
2022-11-03T01:56:46.151Z,7.39
2022-11-03T01:57:46.171Z,7.41
2022-11-03T01:58:46.135Z,7.39
2022-11-03T01:59:46.206Z,7.37
2022-11-03T02:00:46.274Z,7.37
2022-11-03T02:01:46.289Z,7.36
2022-11-03T02:02:46.116Z,7.33
2022-11-03T02:03:46.086Z,7.34
2022-11-03T02:04:46.157Z,7.29
2022-11-03T02:05:46.120Z,7.26
2022-11-03T02:06:46.060Z,7.27
2022-11-03T02:07:46.069Z,7.29
2022-11-03T02:08:46.084Z,7.29
2022-11-03T02:09:46.015Z,7.26
2022-11-03T02:10:46.003Z,7.24
2022-11-03T02:11:46.005Z,7.23
2022-11-03T02:12:46.014Z,7.18
2022-11-03T02:13:46.018Z,7.18
2022-11-03T02:14:45.960Z,7.15
2022-11-03T02:15:45.994Z,7.14
2022-11-03T02:16:48.651Z,7.14
2022-11-03T02:17:45.983Z,7.12
2022-11-03T02:18:45.930Z,7.12
2022-11-03T02:19:45.980Z,7.09
2022-11-03T02:20:45.987Z,7.07
2022-11-03T02:21:45.933Z,7.05
2022-11-03T02:22:51.928Z,7.00
2022-11-03T02:23:46.609Z,6.97
2022-11-03T02:24:49.839Z,6.93
2022-11-03T02:25:46.504Z,6.94
2022-11-03T02:26:45.834Z,6.91
2022-11-03T02:27:45.832Z,6.91
2022-11-03T02:28:45.900Z,6.91
2022-11-03T02:29:45.811Z,6.89
2022-11-03T02:30:45.802Z,6.89
2022-11-03T02:31:45.793Z,6.87
2022-11-03T02:32:45.820Z,6.86
2022-11-03T02:33:45.780Z,6.83
2022-11-03T02:34:45.754Z,6.81
2022-11-03T02:35:45.744Z,6.76
2022-11-03T02:36:45.732Z,6.76
2022-11-03T02:37:45.748Z,6.73
2022-11-03T02:38:45.719Z,6.72
2022-11-03T02:39:45.735Z,6.71
2022-11-03T02:40:45.740Z,6.65
2022-11-03T02:41:45.688Z,6.64
2022-11-03T02:42:45.666Z,6.65
2022-11-03T02:43:45.674Z,6.63
2022-11-03T02:44:45.652Z,6.61
2022-11-03T02:45:45.649Z,6.64
2022-11-03T02:46:45.633Z,6.61
2022-11-03T02:47:45.617Z,6.60
2022-11-03T02:48:45.609Z,6.60
2022-11-03T02:49:45.701Z,6.55
2022-11-03T02:50:45.636Z,6.55
2022-11-03T02:51:45.579Z,6.54
2022-11-03T02:52:45.574Z,6.50
2022-11-03T02:53:45.605Z,6.50
2022-11-03T02:54:45.548Z,6.45
2022-11-03T02:55:45.533Z,6.43
2022-11-03T02:56:45.529Z,6.42
2022-11-03T02:57:45.525Z,6.42
2022-11-03T02:58:45.623Z,6.40
2022-11-03T02:59:45.521Z,6.40
2022-11-03T03:00:45.718Z,6.39
2022-11-03T03:01:45.825Z,6.39
2022-11-03T03:02:45.463Z,6.39
2022-11-03T03:03:45.511Z,6.39
2022-11-03T03:04:45.439Z,6.40
2022-11-03T03:05:45.600Z,6.42
2022-11-03T03:06:45.421Z,6.45
2022-11-03T03:07:45.410Z,6.43
2022-11-03T03:08:45.421Z,6.45
2022-11-03T03:09:45.660Z,6.43
2022-11-03T03:10:45.373Z,6.45
2022-11-03T03:11:45.620Z,6.42
2022-11-03T03:12:45.631Z,6.40
2022-11-03T03:13:45.366Z,6.39
2022-11-03T03:14:45.605Z,6.38
2022-11-03T03:15:45.335Z,6.36
2022-11-03T03:16:45.611Z,6.36
2022-11-03T03:17:45.315Z,6.39
2022-11-03T03:18:45.307Z,6.40
2022-11-03T03:19:45.586Z,6.42
2022-11-03T03:20:45.271Z,6.43
2022-11-03T03:21:45.264Z,6.45
2022-11-03T03:22:45.263Z,6.45
2022-11-03T03:23:45.421Z,6.45
2022-11-03T03:24:45.640Z,6.45
2022-11-03T03:25:45.223Z,6.45
2022-11-03T03:26:45.236Z,6.45
2022-11-03T03:27:45.203Z,6.45
2022-11-03T03:28:45.211Z,6.45
2022-11-03T03:29:45.202Z,6.40
2022-11-03T03:30:45.172Z,6.42
2022-11-03T03:31:45.170Z,6.42
2022-11-03T03:32:45.164Z,6.43
2022-11-03T03:33:47.712Z,6.42
2022-11-03T03:34:45.122Z,6.40
2022-11-03T03:35:45.127Z,6.42
2022-11-03T03:36:45.112Z,6.42
2022-11-03T03:37:45.106Z,6.45
2022-11-03T03:38:45.095Z,6.46
2022-11-03T03:39:45.075Z,6.42
2022-11-03T03:40:45.060Z,6.43
2022-11-03T03:41:45.127Z,6.43
2022-11-03T03:42:45.084Z,6.42
2022-11-03T03:43:45.047Z,6.42
2022-11-03T03:44:45.085Z,6.45
2022-11-03T03:45:45.026Z,6.46
2022-11-03T03:46:45.011Z,6.48
2022-11-03T03:47:45.001Z,6.45
2022-11-03T03:48:45.013Z,6.46
2022-11-03T03:49:44.974Z,6.48
2022-11-03T03:50:44.953Z,6.48
2022-11-03T03:51:45.083Z,6.55
2022-11-03T03:52:44.973Z,6.54
2022-11-03T03:53:45.000Z,6.54
2022-11-03T03:54:44.930Z,6.57
2022-11-03T03:55:44.913Z,6.55
2022-11-03T03:56:44.894Z,6.57
2022-11-03T03:57:44.910Z,6.58
2022-11-03T03:58:44.893Z,6.60
2022-11-03T03:59:44.879Z,6.61
2022-11-03T04:00:44.925Z,6.63
2022-11-03T04:01:44.996Z,6.63
2022-11-03T04:02:44.967Z,6.64
2022-11-03T04:03:44.844Z,6.65
2022-11-03T04:04:44.827Z,6.65
2022-11-03T04:05:44.809Z,6.65
2022-11-03T04:06:44.790Z,6.68
2022-11-03T04:07:44.992Z,6.69
2022-11-03T04:08:45.097Z,6.69
2022-11-03T04:09:44.770Z,6.71
2022-11-03T04:10:44.747Z,6.73
2022-11-03T04:11:45.342Z,6.71
2022-11-03T04:12:44.740Z,6.71
2022-11-03T04:13:44.929Z,6.71
2022-11-03T04:14:44.716Z,6.72
2022-11-03T04:15:44.859Z,6.72
2022-11-03T04:16:44.706Z,6.71
2022-11-03T04:17:44.725Z,6.72
2022-11-03T04:18:44.677Z,6.69
2022-11-03T04:19:44.661Z,6.71
2022-11-03T04:20:44.699Z,6.68
2022-11-03T04:21:44.640Z,6.69
2022-11-03T04:22:44.622Z,6.65
2022-11-03T04:23:44.640Z,6.68
2022-11-03T04:24:44.609Z,6.65
2022-11-03T04:25:44.604Z,6.65
2022-11-03T04:26:44.586Z,6.65
2022-11-03T04:27:44.584Z,6.65
2022-11-03T04:28:44.570Z,6.65
2022-11-03T04:29:44.571Z,6.61
2022-11-03T04:30:44.539Z,6.58
2022-11-03T04:31:44.552Z,6.57
2022-11-03T04:32:44.533Z,6.58
2022-11-03T04:33:44.532Z,6.58
2022-11-03T04:34:44.502Z,6.57
2022-11-03T04:35:44.498Z,6.54
2022-11-03T04:36:44.484Z,6.57
2022-11-03T04:37:47.454Z,6.53
2022-11-03T04:38:44.484Z,6.54
2022-11-03T04:40:44.441Z,6.48
2022-11-03T04:41:44.427Z,6.46
2022-11-03T04:42:44.416Z,6.45
2022-11-03T04:43:44.441Z,6.40
2022-11-03T04:44:44.429Z,6.42
2022-11-03T04:45:44.386Z,6.42
2022-11-03T04:46:44.380Z,6.42
2022-11-03T04:47:44.370Z,6.40
2022-11-03T04:48:44.369Z,6.40
2022-11-03T04:49:44.348Z,6.40
2022-11-03T04:50:46.916Z,6.42
2022-11-03T04:51:44.331Z,6.42
2022-11-03T04:52:44.307Z,6.43
2022-11-03T04:53:44.326Z,6.42
2022-11-03T04:54:44.305Z,6.42
2022-11-03T04:55:44.291Z,6.43
2022-11-03T04:56:44.286Z,6.39
2022-11-03T04:57:44.267Z,6.42
2022-11-03T04:58:44.260Z,6.42
2022-11-03T04:59:44.240Z,6.42
2022-11-03T05:00:44.271Z,6.40
2022-11-03T05:01:44.475Z,6.39
2022-11-03T05:02:44.221Z,6.39
2022-11-03T05:03:44.220Z,6.39
2022-11-03T05:04:44.185Z,6.38
2022-11-03T05:05:44.176Z,6.38
2022-11-03T05:06:44.169Z,6.36
2022-11-03T05:07:44.165Z,6.35
2022-11-03T05:08:44.162Z,6.36
2022-11-03T05:09:44.153Z,6.35
2022-11-03T05:10:44.132Z,6.35
2022-11-03T05:11:44.121Z,6.32
2022-11-03T05:12:44.103Z,6.33
2022-11-03T05:13:44.290Z,6.27
2022-11-03T05:14:44.131Z,6.27
2022-11-03T05:15:44.076Z,6.27
2022-11-03T05:16:44.158Z,6.27
2022-11-03T05:17:44.051Z,6.25
2022-11-03T05:18:44.139Z,6.28
2022-11-03T05:19:44.038Z,6.25
2022-11-03T05:20:44.141Z,6.24
2022-11-03T05:21:44.022Z,6.19
2022-11-03T05:22:44.019Z,6.20
2022-11-03T05:23:43.999Z,6.19
2022-11-03T05:24:43.983Z,6.20
2022-11-03T05:25:43.967Z,6.17
2022-11-03T05:26:44.008Z,6.17
2022-11-03T05:27:43.955Z,6.21
2022-11-03T05:28:44.057Z,6.19
2022-11-03T05:29:43.930Z,6.20
2022-11-03T05:30:44.009Z,6.20
2022-11-03T05:31:43.869Z,6.24
2022-11-03T05:32:43.966Z,6.21
2022-11-03T05:33:43.922Z,6.21
2022-11-03T05:34:43.905Z,6.20
2022-11-03T05:35:43.836Z,6.25
2022-11-03T05:36:43.904Z,6.25
2022-11-03T05:37:43.842Z,6.25
2022-11-03T05:38:43.888Z,6.25
2022-11-03T05:39:43.775Z,6.27
2022-11-03T05:40:43.824Z,6.24
2022-11-03T05:41:43.765Z,6.24
2022-11-03T05:42:43.765Z,6.25
2022-11-03T05:43:43.732Z,6.25
2022-11-03T05:44:43.751Z,6.25
2022-11-03T05:45:43.725Z,6.25
2022-11-03T05:46:43.762Z,6.25
2022-11-03T05:47:43.704Z,6.21
2022-11-03T05:48:43.799Z,6.21
2022-11-03T05:49:43.662Z,6.24
2022-11-03T05:50:43.684Z,6.19
2022-11-03T05:51:43.653Z,6.17
2022-11-03T05:52:43.753Z,6.11
2022-11-03T05:53:43.619Z,6.10
2022-11-03T05:54:43.827Z,6.05
2022-11-03T05:55:43.646Z,6.01
2022-11-03T05:56:43.598Z,5.93
2022-11-03T05:57:43.631Z,5.92
2022-11-03T05:58:43.576Z,5.88
2022-11-03T05:59:43.637Z,5.87
2022-11-03T06:00:48.427Z,5.88
2022-11-03T06:01:43.675Z,5.88
2022-11-03T06:02:43.738Z,5.88
2022-11-03T06:03:43.567Z,5.87
2022-11-03T06:04:43.519Z,5.90
2022-11-03T06:05:43.586Z,5.85
2022-11-03T06:06:43.590Z,5.87
2022-11-03T06:07:43.486Z,5.87
2022-11-03T06:08:46.030Z,5.88
2022-11-03T06:09:43.512Z,5.85
2022-11-03T06:10:43.506Z,5.87
2022-11-03T06:11:43.494Z,5.90
2022-11-03T06:12:43.526Z,5.92
2022-11-03T06:13:43.415Z,5.90
2022-11-03T06:14:43.476Z,5.87
2022-11-03T06:15:43.405Z,5.85
2022-11-03T06:16:43.396Z,5.90
2022-11-03T06:17:43.447Z,5.87
2022-11-03T06:18:43.368Z,5.90
2022-11-03T06:19:43.350Z,5.92
2022-11-03T06:20:43.346Z,5.93
2022-11-03T06:21:44.652Z,5.96
2022-11-03T06:22:43.355Z,5.95
2022-11-03T06:23:43.336Z,5.98
2022-11-03T06:24:43.303Z,5.99
2022-11-03T06:25:43.295Z,5.99
2022-11-03T06:26:43.288Z,5.98
2022-11-03T06:27:43.284Z,6.01
2022-11-03T06:28:43.280Z,5.99
2022-11-03T06:29:43.253Z,5.99
2022-11-03T06:31:43.331Z,6.10
2022-11-03T06:32:43.238Z,6.08
2022-11-03T06:33:43.237Z,6.10
2022-11-03T06:34:43.210Z,6.11
2022-11-03T06:35:43.187Z,6.05
2022-11-03T06:36:43.177Z,5.95
2022-11-03T06:37:43.215Z,5.93
2022-11-03T06:38:43.159Z,5.95
2022-11-03T06:39:43.151Z,5.95
2022-11-03T06:40:43.148Z,5.96
2022-11-03T06:41:43.149Z,5.99
2022-11-03T06:42:43.127Z,6.02
2022-11-03T06:43:43.116Z,6.02
2022-11-03T06:44:43.094Z,6.02
2022-11-03T06:45:43.127Z,6.06
2022-11-03T06:46:43.110Z,6.10
2022-11-03T06:47:43.132Z,6.11
2022-11-03T06:48:43.102Z,6.11
2022-11-03T06:49:43.069Z,6.17
2022-11-03T06:50:44.988Z,6.19
2022-11-03T06:51:43.068Z,6.21
2022-11-03T06:52:43.068Z,6.24
2022-11-03T06:53:43.010Z,6.21
2022-11-03T06:54:42.988Z,6.25
2022-11-03T06:55:42.980Z,6.25
2022-11-03T06:56:42.983Z,6.30
2022-11-03T06:57:42.959Z,6.33
2022-11-03T06:58:42.969Z,6.33
2022-11-03T06:59:42.993Z,6.36
2022-11-03T07:00:48.856Z,6.38
2022-11-03T07:01:43.657Z,6.39
2022-11-03T07:02:42.996Z,6.40
2022-11-03T07:03:42.985Z,6.40
2022-11-03T07:04:42.882Z,6.38
2022-11-03T07:05:42.950Z,6.40
2022-11-03T07:06:42.901Z,6.43
2022-11-03T07:07:42.887Z,6.40
2022-11-03T07:08:42.847Z,6.45
2022-11-03T07:09:42.831Z,6.43
2022-11-03T07:10:42.837Z,6.46
2022-11-03T07:11:42.848Z,6.50
2022-11-03T07:12:42.807Z,6.50
2022-11-03T07:13:42.792Z,6.54
2022-11-03T07:14:42.786Z,6.57
2022-11-03T07:15:42.783Z,6.57
2022-11-03T07:16:42.783Z,6.63
2022-11-03T07:17:42.776Z,6.63
2022-11-03T07:18:42.747Z,6.64
2022-11-03T07:19:42.736Z,6.64
2022-11-03T07:20:42.729Z,6.69
2022-11-03T07:21:42.742Z,6.72
2022-11-03T07:22:42.709Z,6.78
2022-11-03T07:23:44.751Z,6.83
2022-11-03T07:24:42.683Z,6.94
2022-11-03T07:25:42.671Z,7.07
2022-11-03T07:26:42.679Z,7.21
2022-11-03T07:27:42.651Z,7.37
2022-11-03T07:28:42.638Z,7.52
2022-11-03T07:29:42.627Z,7.71
2022-11-03T07:30:42.622Z,7.84
2022-11-03T07:31:42.625Z,8.13
2022-11-03T07:32:42.595Z,8.49
2022-11-03T07:33:42.590Z,8.76
2022-11-03T07:34:42.582Z,8.94
2022-11-03T07:36:13.081Z,8.97
2022-11-03T07:36:42.577Z,8.80
2022-11-03T07:37:42.551Z,8.96
2022-11-03T07:38:42.534Z,9.24
2022-11-03T07:39:42.529Z,9.52
2022-11-03T07:40:42.510Z,9.75
2022-11-03T07:41:42.536Z,9.81
2022-11-03T07:42:42.504Z,9.74
2022-11-03T07:43:42.475Z,9.86
2022-11-03T07:44:42.472Z,10.01
2022-11-03T07:45:42.472Z,10.14
2022-11-03T07:46:42.472Z,10.29
2022-11-03T07:47:42.444Z,10.34
2022-11-03T07:48:42.438Z,10.52
2022-11-03T07:49:42.428Z,10.69
2022-11-03T07:50:42.415Z,10.80
2022-11-03T07:51:42.411Z,10.86
2022-11-03T07:52:42.406Z,10.87
2022-11-03T07:53:42.375Z,10.90
2022-11-03T07:54:42.404Z,10.88
2022-11-03T07:55:42.415Z,10.88
2022-11-03T07:56:42.522Z,10.83
2022-11-03T07:57:42.345Z,10.70
2022-11-03T07:58:42.357Z,10.68
2022-11-03T07:59:42.326Z,10.44
2022-11-03T08:00:42.317Z,10.32
2022-11-03T08:01:42.449Z,10.22
2022-11-03T08:02:42.417Z,9.96
2022-11-03T08:03:42.275Z,9.81
2022-11-03T08:04:42.895Z,9.74
2022-11-03T08:05:42.270Z,9.74
2022-11-03T08:06:42.282Z,9.68
2022-11-03T08:07:42.234Z,9.59
2022-11-03T08:08:42.252Z,9.55
2022-11-03T08:09:42.229Z,9.55
2022-11-03T08:10:42.223Z,9.63
2022-11-03T08:11:42.200Z,9.63
2022-11-03T08:12:42.216Z,9.60
2022-11-03T08:13:42.164Z,9.74
2022-11-03T08:14:42.199Z,9.85
2022-11-03T08:15:42.152Z,9.98
2022-11-03T08:16:42.199Z,9.98
2022-11-03T08:17:42.121Z,10.04
2022-11-03T08:18:42.178Z,10.13
2022-11-03T08:19:42.110Z,10.11
2022-11-03T08:20:42.091Z,10.13
2022-11-03T08:21:42.096Z,10.02
2022-11-03T08:22:49.865Z,10.04
2022-11-03T08:23:50.788Z,10.01
2022-11-03T08:24:42.048Z,9.99
2022-11-03T08:25:42.047Z,10.01
2022-11-03T08:26:42.049Z,9.99
2022-11-03T08:27:42.032Z,10.01
2022-11-03T08:28:42.018Z,10.01
2022-11-03T08:29:41.988Z,9.95
2022-11-03T08:30:42.029Z,9.99
2022-11-03T08:31:42.059Z,10.06
2022-11-03T08:32:42.042Z,10.10
2022-11-03T08:33:41.948Z,10.13
2022-11-03T08:34:41.938Z,10.25
2022-11-03T08:35:42.021Z,10.20
2022-11-03T08:36:41.921Z,10.22
2022-11-03T08:37:41.910Z,10.17
2022-11-03T08:38:42.033Z,10.16
2022-11-03T08:39:41.923Z,10.10
2022-11-03T08:40:42.073Z,9.99
2022-11-03T08:41:41.875Z,9.99
2022-11-03T08:42:41.862Z,10.07
2022-11-03T08:43:41.839Z,10.17
2022-11-03T08:44:41.838Z,10.25
2022-11-03T08:45:41.830Z,10.32
2022-11-03T08:46:41.854Z,10.44
2022-11-03T08:47:41.799Z,10.60
2022-11-03T08:48:41.803Z,10.63
2022-11-03T08:49:41.776Z,10.66
2022-11-03T08:50:41.783Z,10.70
2022-11-03T08:51:44.663Z,10.80
2022-11-03T08:52:41.788Z,10.72
2022-11-03T08:53:41.741Z,10.63
2022-11-03T08:54:41.733Z,10.58
2022-11-03T08:55:41.737Z,10.44
2022-11-03T08:56:41.707Z,10.39
2022-11-03T08:57:41.690Z,10.47
2022-11-03T08:58:41.689Z,10.60
2022-11-03T08:59:41.671Z,10.65
2022-11-03T09:00:41.673Z,10.73
2022-11-03T09:01:41.712Z,10.70
2022-11-03T09:02:41.691Z,10.90
2022-11-03T09:03:41.718Z,11.09
2022-11-03T09:04:41.628Z,11.27
2022-11-03T09:05:41.619Z,11.41
2022-11-03T09:06:41.601Z,11.62
2022-11-03T09:10:42.613Z,11.60
2022-11-03T09:11:41.540Z,11.54
2022-11-03T09:12:41.546Z,11.62
2022-11-03T09:13:41.532Z,11.70
2022-11-03T09:14:41.521Z,11.75
2022-11-03T09:15:41.502Z,11.75
2022-11-03T09:16:41.506Z,11.75
2022-11-03T09:17:44.698Z,11.69
2022-11-03T09:18:41.483Z,11.62
2022-11-03T09:19:41.469Z,11.64
2022-11-03T09:20:41.453Z,11.69
2022-11-03T09:21:41.451Z,11.69
2022-11-03T09:22:41.451Z,11.62
2022-11-03T09:23:41.418Z,11.67
2022-11-03T09:24:41.410Z,11.72
2022-11-03T09:25:41.420Z,11.63
2022-11-03T09:26:41.389Z,11.59
2022-11-03T09:27:41.394Z,11.57
2022-11-03T09:28:41.364Z,11.59
2022-11-03T09:30:10.916Z,11.51
2022-11-03T09:30:41.363Z,11.44
2022-11-03T09:31:41.351Z,11.27
2022-11-03T09:32:41.329Z,11.26
2022-11-03T09:33:41.314Z,11.26
2022-11-03T09:34:41.300Z,11.27
2022-11-03T09:35:41.320Z,11.28
2022-11-03T09:36:41.281Z,11.30
2022-11-03T09:37:41.278Z,11.39
2022-11-03T09:38:41.269Z,11.42
2022-11-03T09:39:41.248Z,11.36
2022-11-03T09:40:41.357Z,11.44
2022-11-03T09:41:57.136Z,11.56
2022-11-03T09:42:41.217Z,11.63
2022-11-03T09:43:41.219Z,11.69
2022-11-03T09:44:41.239Z,11.75
2022-11-03T09:45:41.232Z,11.88
2022-11-03T09:46:41.216Z,11.96
2022-11-03T09:47:41.218Z,12.01
2022-11-03T09:48:41.217Z,12.04
2022-11-03T09:49:41.145Z,12.15
2022-11-03T09:50:41.144Z,12.26
2022-11-03T09:51:41.170Z,12.30
2022-11-03T09:52:41.147Z,12.40
2022-11-03T09:53:41.109Z,12.54
2022-11-03T09:54:41.100Z,12.71
2022-11-03T09:55:41.102Z,12.80
2022-11-03T09:56:41.066Z,12.77
2022-11-03T09:57:41.054Z,12.79
2022-11-03T09:58:41.051Z,12.87
2022-11-03T09:59:41.031Z,12.94
2022-11-03T10:00:41.139Z,13.07
2022-11-03T10:01:41.104Z,13.28
2022-11-03T10:02:40.993Z,13.46
2022-11-03T10:03:40.985Z,13.61
2022-11-03T10:04:40.976Z,13.69
2022-11-03T10:05:40.962Z,13.55
2022-11-03T10:06:40.967Z,13.51
2022-11-03T10:07:41.011Z,13.48
2022-11-03T10:08:40.956Z,13.41
2022-11-03T10:09:40.934Z,13.44
2022-11-03T10:10:40.922Z,13.61
2022-11-03T10:11:40.925Z,13.65
2022-11-03T10:12:40.889Z,13.41
2022-11-03T10:13:40.884Z,13.21
2022-11-03T10:14:40.892Z,13.12
2022-11-03T10:15:40.905Z,13.14
2022-11-03T10:16:40.842Z,13.10
2022-11-03T10:17:40.841Z,13.12
2022-11-03T10:18:40.828Z,13.13
2022-11-03T10:19:40.815Z,13.10
2022-11-03T10:20:40.806Z,13.10
2022-11-03T10:21:40.813Z,13.13
2022-11-03T10:22:41.297Z,13.12
2022-11-03T10:23:40.794Z,13.06
2022-11-03T10:24:40.770Z,13.13
2022-11-03T10:25:40.767Z,13.14
2022-11-03T10:26:40.749Z,13.21
2022-11-03T10:27:40.731Z,13.12
2022-11-03T10:28:40.734Z,13.06
2022-11-03T10:29:42.430Z,13.13
2022-11-03T10:30:58.062Z,13.13
2022-11-03T10:31:40.706Z,13.19
2022-11-03T10:32:40.682Z,13.17
2022-11-03T10:33:40.723Z,13.25
2022-11-03T10:34:40.677Z,13.32
2022-11-03T10:35:40.650Z,13.41
2022-11-03T10:36:40.651Z,13.39
2022-11-03T10:37:40.712Z,13.36
2022-11-03T10:38:40.613Z,13.43
2022-11-03T10:39:40.611Z,13.43
2022-11-03T10:40:48.684Z,13.38
2022-11-03T10:41:40.609Z,13.41
2022-11-03T10:42:40.573Z,13.43
2022-11-03T10:43:40.566Z,13.32
2022-11-03T10:44:40.554Z,13.32
2022-11-03T10:45:40.568Z,13.35
2022-11-03T10:46:56.044Z,13.24
2022-11-03T10:47:40.551Z,13.16
2022-11-03T10:48:40.510Z,13.13
2022-11-03T10:49:43.697Z,13.13
2022-11-03T10:50:40.500Z,13.27
2022-11-03T10:51:40.527Z,13.32
2022-11-03T10:52:40.474Z,13.28
2022-11-03T10:53:40.461Z,13.24
2022-11-03T10:54:40.457Z,13.10
2022-11-03T10:55:40.454Z,13.01
2022-11-03T10:56:40.433Z,13.09
2022-11-03T10:57:40.414Z,13.21
2022-11-03T10:58:40.396Z,13.24
2022-11-03T10:59:40.391Z,13.22
2022-11-03T11:00:40.466Z,13.21
2022-11-03T11:01:40.567Z,13.24
2022-11-03T11:02:40.400Z,13.22
2022-11-03T11:03:40.372Z,13.21
2022-11-03T11:04:40.459Z,13.17
2022-11-03T11:05:40.328Z,13.19
2022-11-03T11:06:40.348Z,13.25
2022-11-03T11:07:40.414Z,13.28
2022-11-03T11:08:40.346Z,13.27
2022-11-03T11:09:40.292Z,13.28
2022-11-03T11:10:40.323Z,13.29
2022-11-03T11:11:40.368Z,13.35
2022-11-03T11:12:40.276Z,13.36
2022-11-03T11:13:40.238Z,13.28
2022-11-03T11:14:40.235Z,13.24
2022-11-03T11:15:40.242Z,13.16
2022-11-03T11:16:40.211Z,13.16
2022-11-03T11:17:40.199Z,13.17
2022-11-03T11:18:40.192Z,13.14
2022-11-03T11:19:40.187Z,13.09
2022-11-03T11:20:40.188Z,13.13
2022-11-03T11:21:40.156Z,13.19
2022-11-03T11:22:40.161Z,13.19
2022-11-03T11:23:40.145Z,13.27
2022-11-03T11:24:40.123Z,13.28
2022-11-03T11:25:40.150Z,13.29
2022-11-03T11:26:40.121Z,13.27
2022-11-03T11:27:40.092Z,13.29
2022-11-03T11:28:40.083Z,13.28
2022-11-03T11:29:40.078Z,13.29
2022-11-03T11:30:40.081Z,13.27
2022-11-03T11:31:40.094Z,13.29
2022-11-03T11:32:40.037Z,13.27
2022-11-03T11:33:40.076Z,13.14
2022-11-03T11:34:40.018Z,13.03
2022-11-03T11:35:40.472Z,12.98
2022-11-03T11:36:40.023Z,12.94
2022-11-03T11:37:39.987Z,12.84
2022-11-03T11:38:39.981Z,12.79
2022-11-03T11:39:39.965Z,12.87
2022-11-03T11:40:39.975Z,12.88
2022-11-03T11:41:39.972Z,12.87
2022-11-03T11:42:39.942Z,12.87
2022-11-03T11:43:39.924Z,12.89
2022-11-03T11:44:39.911Z,12.87
2022-11-03T11:45:39.910Z,12.88
2022-11-03T11:46:39.953Z,12.88
2022-11-03T11:47:39.879Z,12.88
2022-11-03T11:48:39.883Z,12.94
2022-11-03T11:49:39.862Z,12.95
2022-11-03T11:50:39.859Z,12.98
2022-11-03T11:51:39.868Z,12.99
2022-11-03T11:52:39.841Z,13.01
2022-11-03T11:53:39.821Z,13.01
2022-11-03T11:54:39.800Z,13.03
2022-11-03T11:55:39.865Z,13.07
2022-11-03T11:56:39.785Z,13.06
2022-11-03T11:57:39.785Z,13.09
2022-11-03T11:58:41.784Z,13.07
2022-11-03T11:59:39.789Z,13.04
2022-11-03T12:00:39.747Z,13.06
2022-11-03T12:01:39.768Z,13.07
2022-11-03T12:02:39.734Z,13.09
2022-11-03T12:03:39.768Z,13.09
2022-11-03T12:04:39.693Z,13.04
2022-11-03T12:05:39.710Z,13.03
2022-11-03T12:06:39.730Z,13.03
2022-11-03T12:07:39.675Z,13.06
2022-11-03T12:08:39.659Z,13.07
2022-11-03T12:09:39.651Z,13.07
2022-11-03T12:10:39.655Z,13.10
2022-11-03T12:11:43.856Z,13.09
2022-11-03T12:12:39.621Z,13.01
2022-11-03T12:13:39.610Z,13.01
2022-11-03T12:14:39.637Z,13.03
2022-11-03T12:15:39.612Z,13.01
2022-11-03T12:16:39.612Z,12.99
2022-11-03T12:17:39.561Z,13.01
2022-11-03T12:18:42.586Z,12.95
2022-11-03T12:19:39.559Z,12.96
2022-11-03T12:20:39.579Z,12.99
2022-11-03T12:21:39.523Z,12.98
2022-11-03T12:22:39.540Z,13.03
2022-11-03T12:23:39.496Z,12.95
2022-11-03T12:24:39.487Z,12.94
2022-11-03T12:25:39.513Z,12.92
2022-11-03T12:26:39.457Z,12.92
2022-11-03T12:27:39.451Z,12.96
2022-11-03T12:28:39.447Z,12.96
2022-11-03T12:29:39.434Z,12.95
2022-11-03T12:30:40.245Z,12.99
2022-11-03T12:31:39.411Z,13.01
2022-11-03T12:32:39.400Z,13.01
2022-11-03T12:33:39.404Z,12.99
2022-11-03T12:34:39.380Z,13.03
2022-11-03T12:35:39.438Z,13.04
2022-11-03T12:36:39.351Z,13.03
2022-11-03T12:37:39.380Z,13.03
2022-11-03T12:38:39.347Z,13.03
2022-11-03T12:39:39.323Z,13.04
2022-11-03T12:40:39.326Z,13.04
2022-11-03T12:41:39.303Z,13.09
2022-11-03T12:42:39.288Z,13.10
2022-11-03T12:43:39.289Z,13.12
2022-11-03T12:44:43.661Z,13.13
2022-11-03T12:45:39.274Z,13.09
2022-11-03T12:46:39.248Z,13.06
2022-11-03T12:47:39.245Z,13.07
2022-11-03T12:48:39.279Z,13.07
2022-11-03T12:49:39.232Z,13.10
2022-11-03T12:50:39.218Z,13.13
2022-11-03T12:51:39.196Z,13.16
2022-11-03T12:52:39.204Z,13.13
2022-11-03T12:53:39.206Z,13.13
2022-11-03T12:54:39.171Z,13.16
2022-11-03T12:55:42.113Z,13.14
2022-11-03T12:56:39.144Z,13.19
2022-11-03T12:57:39.136Z,13.21
2022-11-03T12:58:39.141Z,13.17
2022-11-03T12:59:39.134Z,13.14
2022-11-03T13:00:39.190Z,13.14
2022-11-03T13:01:39.208Z,13.06
2022-11-03T13:02:39.263Z,13.06
2022-11-03T13:03:39.083Z,13.07
2022-11-03T13:04:39.095Z,13.06
2022-11-03T13:05:39.047Z,13.09
2022-11-03T13:06:39.098Z,13.10
2022-11-03T13:07:39.031Z,13.13
2022-11-03T13:08:39.012Z,13.13
2022-11-03T13:09:39.003Z,13.13
2022-11-03T13:10:38.999Z,13.14
2022-11-03T13:11:38.984Z,13.14
2022-11-03T13:12:38.972Z,13.17
2022-11-03T13:13:38.961Z,13.14